createdAt,value
2019-02-04T00:00:42.326Z,18.47
2019-02-04T00:05:47.327Z,17.17
2019-02-04T00:10:52.308Z,19.27
2019-02-04T00:15:57.303Z,20.03
2019-02-04T00:21:02.585Z,19.37
2019-02-04T00:26:07.628Z,18.70
2019-02-04T00:31:12.619Z,19.27
2019-02-04T00:36:17.626Z,20.57
2019-02-04T00:41:22.632Z,21.77
2019-02-04T00:46:27.655Z,21.77
2019-02-04T00:51:32.674Z,22.67
2019-02-04T00:56:37.635Z,24.03
2019-02-04T01:01:42.730Z,26.00
2019-02-04T01:06:47.709Z,23.53
2019-02-04T01:11:52.695Z,23.67
2019-02-04T01:17:03.600Z,26.10
2019-02-04T01:22:04.374Z,24.07
2019-02-04T01:27:09.372Z,24.93
2019-02-04T01:32:14.355Z,26.20
2019-02-04T01:37:19.352Z,26.30
2019-02-04T01:42:24.378Z,21.70
2019-02-04T01:47:29.357Z,25.53
2019-02-04T01:52:34.351Z,21.87
2019-02-04T01:57:39.450Z,21.90
2019-02-04T02:02:44.483Z,24.27
2019-02-04T02:07:49.870Z,27.03
2019-02-04T02:12:55.196Z,24.73
2019-02-04T02:18:00.209Z,29.47
2019-02-04T02:23:05.359Z,27.40
2019-02-04T02:28:10.371Z,25.07
2019-02-04T02:33:15.388Z,29.00
2019-02-04T02:38:20.383Z,23.10
2019-02-04T02:43:25.383Z,29.17
2019-02-04T02:48:30.397Z,33.20
2019-02-04T02:53:35.456Z,29.03
2019-02-04T02:58:40.447Z,29.80
2019-02-04T03:03:45.451Z,37.37
2019-02-04T03:08:50.444Z,41.50
2019-02-04T03:13:55.431Z,41.30
2019-02-04T03:19:00.429Z,36.60
2019-02-04T03:24:05.420Z,24.93
2019-02-04T03:29:10.605Z,26.30
2019-02-04T03:34:15.656Z,23.83
2019-02-04T03:39:20.654Z,40.60
2019-02-04T03:44:25.675Z,35.63
2019-02-04T03:49:30.789Z,44.03
2019-02-04T03:54:35.770Z,37.67
2019-02-04T03:59:40.780Z,38.77
2019-02-04T04:04:46.187Z,38.03
2019-02-04T04:09:51.198Z,38.53
2019-02-04T04:14:56.771Z,30.10
2019-02-04T04:20:01.768Z,31.33
2019-02-04T04:25:08.130Z,29.60
2019-02-04T04:30:21.580Z,24.33
2019-02-04T04:35:26.546Z,22.03
2019-02-04T04:40:31.584Z,23.63
2019-02-04T04:45:36.987Z,26.20
2019-02-04T04:50:42.005Z,27.63
2019-02-04T04:55:47.007Z,33.50
2019-02-04T05:00:52.003Z,29.40
2019-02-04T05:05:56.995Z,28.87
2019-02-04T05:11:02.296Z,30.17
2019-02-04T05:16:07.280Z,32.87
2019-02-04T05:21:12.279Z,39.00
2019-02-04T05:26:17.320Z,32.57
2019-02-04T05:31:22.337Z,40.30
2019-02-04T05:36:27.339Z,34.27
2019-02-04T05:41:32.335Z,37.07
2019-02-04T05:46:37.369Z,32.23
2019-02-04T05:51:42.388Z,35.97
2019-02-04T05:56:47.811Z,36.87
2019-02-04T06:01:52.809Z,34.03
2019-02-04T06:06:57.790Z,32.93
2019-02-04T06:12:02.805Z,34.40
2019-02-04T06:17:07.808Z,35.07
2019-02-04T06:22:12.836Z,36.10
2019-02-04T06:27:17.824Z,33.43
2019-02-04T06:32:23.169Z,35.63
2019-02-04T06:37:28.174Z,32.60
2019-02-04T06:42:33.174Z,37.00
2019-02-04T06:47:38.203Z,51.33
2019-02-04T06:52:43.216Z,33.80
2019-02-04T06:57:48.237Z,31.93
2019-02-04T07:02:53.239Z,38.53
2019-02-04T07:07:58.286Z,41.27
2019-02-04T07:13:03.256Z,34.67
2019-02-04T07:18:08.269Z,35.17
2019-02-04T07:23:13.317Z,36.80
2019-02-04T07:28:18.667Z,36.37
2019-02-04T07:33:23.706Z,46.87
2019-02-04T07:38:28.730Z,31.83
2019-02-04T07:43:33.900Z,31.90
2019-02-04T07:48:38.892Z,26.93
2019-02-04T07:53:44.199Z,33.43
2019-02-04T07:58:49.294Z,52.37
2019-02-04T08:03:54.631Z,36.30
2019-02-04T08:08:59.623Z,34.07
2019-02-04T08:14:05.091Z,33.37
2019-02-04T08:19:10.471Z,42.03
2019-02-04T08:24:15.459Z,45.73
2019-02-04T08:29:20.442Z,36.80
2019-02-04T08:34:25.446Z,34.70
2019-02-04T08:39:30.455Z,35.40
2019-02-04T08:44:35.419Z,37.43
2019-02-04T08:49:58.031Z,37.63
2019-02-04T08:54:56.716Z,38.70
2019-02-04T09:00:01.743Z,38.00
2019-02-04T09:05:09.554Z,37.43
2019-02-04T09:10:24.934Z,36.73
2019-02-04T09:15:30.339Z,69.80
2019-02-04T09:20:35.344Z,54.67
2019-02-04T09:25:40.299Z,42.63
2019-02-04T09:30:45.276Z,47.40
2019-02-04T09:35:50.304Z,52.43
2019-02-04T09:40:55.302Z,51.20
2019-02-04T09:46:00.274Z,46.33
2019-02-04T09:51:05.982Z,41.67
2019-02-04T09:56:10.950Z,40.03
2019-02-04T10:01:15.936Z,47.40
2019-02-04T10:06:20.986Z,45.07
2019-02-04T10:11:25.956Z,38.67
2019-02-04T10:16:30.916Z,41.93
2019-02-04T10:21:35.901Z,47.53
2019-02-04T10:26:41.397Z,46.67
2019-02-04T10:31:48.118Z,46.43
2019-02-04T10:36:53.103Z,51.47
2019-02-04T10:41:58.091Z,49.90
2019-02-04T10:47:03.285Z,46.87
2019-02-04T10:52:08.271Z,73.37
2019-02-04T10:57:13.319Z,25.70
2019-02-04T11:02:18.283Z,46.10
2019-02-04T11:07:23.355Z,30.47
2019-02-04T11:12:28.355Z,48.60
2019-02-04T11:17:33.322Z,26.37
2019-02-04T11:22:38.271Z,47.73
2019-02-04T11:27:43.680Z,69.47
2019-02-04T11:32:49.179Z,35.53
2019-02-04T11:37:55.437Z,38.03
2019-02-04T11:43:00.356Z,43.20
2019-02-04T11:48:08.525Z,33.53
2019-02-04T11:53:14.316Z,59.10
2019-02-04T11:58:19.258Z,35.87
2019-02-04T12:03:24.219Z,49.50
2019-02-04T12:08:29.198Z,43.37
2019-02-04T12:13:34.146Z,38.70
2019-02-04T12:18:39.110Z,36.83
2019-02-04T12:23:44.094Z,52.33
2019-02-04T12:28:49.056Z,51.70
2019-02-04T12:33:54.006Z,26.27
2019-02-04T12:38:58.972Z,37.70
2019-02-04T12:44:04.003Z,26.13
2019-02-04T12:49:08.959Z,29.33
2019-02-04T12:54:13.905Z,23.53
2019-02-04T12:59:18.859Z,27.67
2019-02-04T13:04:23.807Z,30.67
2019-02-04T13:09:28.767Z,27.10
2019-02-04T13:14:33.713Z,24.53
2019-02-04T13:19:40.087Z,25.27
2019-02-04T13:24:45.063Z,26.23
2019-02-04T13:29:50.318Z,25.90
2019-02-04T13:34:55.284Z,24.63
2019-02-04T13:40:01.386Z,24.13
2019-02-04T13:45:09.455Z,24.07
2019-02-04T13:50:15.037Z,27.13
2019-02-04T13:55:28.807Z,23.67
2019-02-04T14:00:34.110Z,26.73
2019-02-04T14:05:39.102Z,25.13
2019-02-04T14:10:46.259Z,29.93
2019-02-04T14:15:51.312Z,27.87
2019-02-04T14:20:56.267Z,23.83
2019-02-04T14:26:01.442Z,27.00
2019-02-04T14:31:06.403Z,38.30
2019-02-04T14:36:11.435Z,31.83
2019-02-04T14:41:16.450Z,26.93
2019-02-04T14:46:40.723Z,27.20
2019-02-04T14:52:21.860Z,26.10
2019-02-04T14:58:16.190Z,24.80
2019-02-04T15:04:08.615Z,33.00
2019-02-04T15:10:00.633Z,41.37
2019-02-04T15:15:49.635Z,26.10
2019-02-04T15:21:29.223Z,26.03
2019-02-04T15:26:46.301Z,20.93
2019-02-04T15:32:25.151Z,19.97
2019-02-04T15:37:52.743Z,32.87
2019-02-04T15:43:24.828Z,21.30
2019-02-04T15:48:54.801Z,28.53
2019-02-04T15:54:02.294Z,68.97
2019-02-04T15:59:07.272Z,44.30
2019-02-04T16:04:31.062Z,52.67
2019-02-04T16:09:36.042Z,34.83
2019-02-04T16:14:41.015Z,64.13
2019-02-04T16:19:45.984Z,83.30
2019-02-04T16:24:50.967Z,67.93
2019-02-04T16:29:55.939Z,100.10
2019-02-04T16:35:01.775Z,100.30
2019-02-04T16:40:10.126Z,113.30
2019-02-04T16:45:15.347Z,213.20
2019-02-04T16:50:22.518Z,117.50
2019-02-04T16:55:27.480Z,140.33
2019-02-04T17:00:33.008Z,112.73
2019-02-04T17:05:37.996Z,120.57
2019-02-04T17:10:43.084Z,111.07
2019-02-04T17:15:48.111Z,102.33
2019-02-04T17:20:53.118Z,143.70
2019-02-04T17:25:59.774Z,123.93
2019-02-04T17:31:05.143Z,105.90
2019-02-04T17:36:10.184Z,110.03
2019-02-04T17:41:15.295Z,104.90
2019-02-04T17:46:21.785Z,107.67
2019-02-04T17:51:26.786Z,153.53
2019-02-04T17:56:32.451Z,101.23
2019-02-04T18:01:38.690Z,105.90
2019-02-04T18:06:43.699Z,111.90
2019-02-04T18:11:49.934Z,130.07
2019-02-04T18:16:54.977Z,100.93
2019-02-04T18:21:59.967Z,108.60
2019-02-04T18:27:05.091Z,122.33
2019-02-04T18:32:11.935Z,126.47
2019-02-04T18:37:16.969Z,127.53
2019-02-04T18:42:22.253Z,124.17
2019-02-04T18:47:28.824Z,93.30
2019-02-04T18:52:37.141Z,125.07
2019-02-04T18:57:44.599Z,84.93
2019-02-04T19:02:52.158Z,67.27
2019-02-04T19:07:57.734Z,138.03
2019-02-04T19:13:02.747Z,84.77
2019-02-04T19:18:11.680Z,77.10
2019-02-04T19:23:16.723Z,70.80
2019-02-04T19:28:21.804Z,104.33
2019-02-04T19:33:26.781Z,69.53
2019-02-04T19:38:31.839Z,67.90
2019-02-04T19:43:37.051Z,122.50
2019-02-04T19:48:42.048Z,170.67
2019-02-04T19:53:47.092Z,120.17
2019-02-04T19:58:52.078Z,136.60
2019-02-04T20:03:57.091Z,82.97
2019-02-04T20:09:05.204Z,79.27
2019-02-04T20:14:09.777Z,100.57
2019-02-04T20:19:14.900Z,110.43
2019-02-04T20:24:19.975Z,99.27
2019-02-04T20:29:24.934Z,95.83
2019-02-04T20:34:29.994Z,115.33
2019-02-04T20:39:35.010Z,143.67
2019-02-04T20:44:40.064Z,109.60
2019-02-04T20:49:45.073Z,151.57
2019-02-04T20:54:50.454Z,74.77
2019-02-04T20:59:56.360Z,102.03
2019-02-04T21:05:01.287Z,83.43
2019-02-04T21:10:08.256Z,102.30
2019-02-04T21:15:13.687Z,112.60
2019-02-04T21:20:21.317Z,155.10
2019-02-04T21:25:26.359Z,98.33
2019-02-04T21:30:35.714Z,100.10
2019-02-04T21:35:40.770Z,109.57
2019-02-04T21:40:46.152Z,102.90
2019-02-04T21:45:51.163Z,112.27
2019-02-04T21:50:56.251Z,160.17
2019-02-04T21:56:01.264Z,132.03
2019-02-04T22:01:06.723Z,86.77
2019-02-04T22:06:11.719Z,100.47
2019-02-04T22:11:20.022Z,101.67
2019-02-04T22:16:25.027Z,96.30
2019-02-04T22:21:30.401Z,85.40
2019-02-04T22:26:35.761Z,98.07
2019-02-04T22:31:41.051Z,72.40
2019-02-04T22:36:46.377Z,95.00
2019-02-04T22:41:51.661Z,89.67
2019-02-04T22:46:56.646Z,123.37
2019-02-04T22:52:01.695Z,230.33
2019-02-04T22:57:06.680Z,116.87
2019-02-04T23:02:11.849Z,130.20
2019-02-04T23:07:16.954Z,111.17
2019-02-04T23:12:21.979Z,112.63
2019-02-04T23:17:26.987Z,158.07
2019-02-04T23:22:32.026Z,153.47
2019-02-04T23:27:37.444Z,128.23
2019-02-04T23:32:42.444Z,148.03
2019-02-04T23:37:47.502Z,150.20
2019-02-04T23:42:52.580Z,115.27
2019-02-04T23:47:57.556Z,114.87
2019-02-04T23:53:02.670Z,130.27
2019-02-04T23:58:07.686Z,99.20
